createdAt,value
2018-05-14T00:01:45.860Z,34.13
2018-05-14T00:04:12.123Z,38.93
2018-05-14T00:06:38.379Z,34.03
2018-05-14T00:09:04.641Z,39.77
2018-05-14T00:11:30.869Z,42.80
2018-05-14T00:13:57.835Z,38.27
2018-05-14T00:16:24.047Z,37.17
2018-05-14T00:18:50.289Z,32.40
2018-05-14T00:21:16.602Z,38.87
2018-05-14T00:23:43.547Z,43.83
2018-05-14T00:26:10.581Z,41.63
2018-05-14T00:28:37.584Z,38.50
2018-05-14T00:31:03.827Z,44.10
2018-05-14T00:33:30.060Z,38.00
2018-05-14T00:36:03.186Z,39.03
2018-05-14T00:38:30.138Z,40.83
2018-05-14T00:41:03.368Z,43.07
2018-05-14T00:43:29.563Z,40.37
2018-05-14T00:45:55.800Z,41.60
2018-05-14T00:48:22.132Z,41.27
2018-05-14T00:50:48.343Z,42.47
2018-05-14T00:53:14.659Z,45.17
2018-05-14T00:55:41.007Z,46.73
2018-05-14T00:58:07.264Z,46.80
2018-05-14T01:00:33.567Z,47.93
2018-05-14T01:02:59.833Z,46.07
2018-05-14T01:05:26.077Z,45.33
2018-05-14T01:07:52.367Z,46.27
2018-05-14T01:10:18.596Z,47.83
2018-05-14T01:12:44.800Z,42.20
2018-05-14T01:15:11.060Z,48.70
2018-05-14T01:17:37.268Z,43.77
2018-05-14T01:20:03.531Z,47.70
2018-05-14T01:22:29.814Z,48.20
2018-05-14T01:25:01.960Z,49.53
2018-05-14T01:27:28.979Z,46.33
2018-05-14T01:29:55.361Z,54.57
2018-05-14T01:32:21.682Z,46.50
2018-05-14T01:34:47.916Z,54.57
2018-05-14T01:37:14.913Z,47.37
2018-05-14T01:39:41.176Z,45.80
2018-05-14T01:42:08.175Z,47.47
2018-05-14T01:44:34.423Z,49.27
2018-05-14T01:47:00.619Z,49.30
2018-05-14T01:49:26.833Z,49.57
2018-05-14T01:51:53.746Z,55.47
2018-05-14T01:54:19.999Z,45.73
2018-05-14T01:56:46.966Z,46.80
2018-05-14T01:59:13.163Z,47.03
2018-05-14T02:01:40.121Z,54.97
2018-05-14T02:04:06.345Z,51.70
2018-05-14T02:06:33.269Z,55.50
2018-05-14T02:08:59.562Z,54.33
2018-05-14T02:11:25.870Z,50.77
2018-05-14T02:13:52.064Z,51.47
2018-05-14T02:16:19.028Z,52.13
2018-05-14T02:18:45.252Z,53.20
2018-05-14T02:21:12.211Z,49.10
2018-05-14T02:23:38.456Z,48.90
2018-05-14T02:26:04.666Z,52.83
2018-05-14T02:28:30.862Z,54.57
2018-05-14T02:30:57.807Z,56.57
2018-05-14T02:33:24.771Z,53.53
2018-05-14T02:35:51.006Z,50.97
2018-05-14T02:38:17.238Z,57.63
2018-05-14T02:40:43.451Z,57.27
2018-05-14T02:43:09.685Z,53.27
2018-05-14T02:45:35.896Z,56.17
2018-05-14T02:48:02.841Z,51.00
2018-05-14T02:50:29.791Z,56.37
2018-05-14T02:52:56.018Z,60.03
2018-05-14T02:55:23.044Z,56.17
2018-05-14T02:57:49.984Z,48.80
2018-05-14T03:00:16.212Z,51.00
2018-05-14T03:02:42.512Z,52.27
2018-05-14T03:05:08.721Z,56.03
2018-05-14T03:07:34.952Z,56.20
2018-05-14T03:10:01.176Z,58.13
2018-05-14T03:12:27.432Z,58.73
2018-05-14T03:14:53.722Z,53.17
2018-05-14T03:17:20.032Z,52.50
2018-05-14T03:19:46.199Z,49.97
2018-05-14T03:22:12.451Z,48.90
2018-05-14T03:24:38.763Z,50.83
2018-05-14T03:27:04.993Z,49.87
2018-05-14T03:29:31.296Z,50.70
2018-05-14T03:31:57.508Z,61.37
2018-05-14T03:34:24.506Z,58.83
2018-05-14T03:36:50.735Z,48.33
2018-05-14T03:39:17.019Z,60.93
2018-05-14T03:41:43.237Z,58.93
2018-05-14T03:44:10.183Z,49.37
2018-05-14T03:46:37.107Z,52.30
2018-05-14T03:49:03.319Z,60.57
2018-05-14T03:51:29.555Z,56.53
2018-05-14T03:53:56.527Z,55.30
2018-05-14T03:56:22.812Z,55.07
2018-05-14T03:59:01.316Z,64.93
2018-05-14T04:01:40.088Z,56.20
2018-05-14T04:04:18.782Z,51.67
2018-05-14T04:06:45.097Z,50.57
2018-05-14T04:09:11.415Z,49.07
2018-05-14T04:11:38.468Z,50.30
2018-05-14T04:14:04.687Z,56.40
2018-05-14T04:16:30.990Z,64.43
2018-05-14T04:18:57.954Z,53.40
2018-05-14T04:21:24.304Z,50.87
2018-05-14T04:23:50.835Z,53.43
2018-05-14T04:26:17.223Z,51.53
2018-05-14T04:28:44.194Z,43.50
2018-05-14T04:31:10.424Z,46.43
2018-05-14T04:33:36.652Z,46.70
2018-05-14T04:36:02.896Z,45.90
2018-05-14T04:38:29.239Z,44.03
2018-05-14T04:40:55.459Z,45.30
2018-05-14T04:43:21.728Z,46.73
2018-05-14T04:45:48.790Z,40.70
2018-05-14T04:48:15.792Z,48.23
2018-05-14T04:50:41.996Z,46.00
2018-05-14T04:53:08.187Z,44.50
2018-05-14T04:55:35.206Z,45.33
2018-05-14T04:58:01.480Z,49.93
2018-05-14T05:00:28.421Z,44.00
2018-05-14T05:02:54.639Z,45.37
2018-05-14T05:05:21.139Z,45.30
2018-05-14T05:07:47.339Z,50.90
2018-05-14T05:10:13.677Z,47.73
2018-05-14T05:12:39.883Z,48.83
2018-05-14T05:15:06.811Z,46.97
2018-05-14T05:17:33.757Z,49.27
2018-05-14T05:20:00.667Z,53.67
2018-05-14T05:22:26.869Z,52.40
2018-05-14T05:24:53.083Z,42.07
2018-05-14T05:27:19.272Z,54.03
2018-05-14T05:29:45.452Z,47.63
2018-05-14T05:32:11.664Z,46.93
2018-05-14T05:34:37.911Z,44.80
2018-05-14T05:37:04.136Z,50.77
2018-05-14T05:39:30.351Z,46.60
2018-05-14T05:41:56.533Z,45.13
2018-05-14T05:44:22.740Z,48.33
2018-05-14T05:46:50.451Z,45.30
2018-05-14T05:49:16.659Z,37.60
2018-05-14T05:51:42.815Z,39.93
2018-05-14T05:54:09.003Z,38.43
2018-05-14T05:56:36.673Z,41.67
2018-05-14T05:59:02.860Z,38.57
2018-05-14T06:01:29.058Z,44.67
2018-05-14T06:03:55.260Z,44.57
2018-05-14T06:06:21.431Z,37.60
2018-05-14T06:08:47.653Z,39.83
2018-05-14T06:11:20.923Z,39.33
2018-05-14T06:13:47.866Z,42.50
2018-05-14T06:16:14.790Z,43.50
2018-05-14T06:18:41.734Z,40.30
2018-05-14T06:21:07.962Z,42.77
2018-05-14T06:23:34.913Z,42.87
2018-05-14T06:26:01.824Z,44.20
2018-05-14T06:28:28.007Z,40.67
2018-05-14T06:30:54.187Z,41.80
2018-05-14T06:33:20.371Z,40.93
2018-05-14T06:35:46.797Z,45.13
2018-05-14T06:38:12.792Z,44.13
2018-05-14T06:40:39.741Z,42.40
2018-05-14T06:43:05.915Z,37.93
2018-05-14T06:45:32.101Z,38.43
2018-05-14T06:47:59.008Z,39.57
2018-05-14T06:50:25.200Z,39.27
2018-05-14T06:52:51.385Z,46.00
2018-05-14T06:55:24.512Z,41.60
2018-05-14T06:57:50.689Z,36.70
2018-05-14T07:00:16.872Z,40.40
2018-05-14T07:02:43.071Z,38.30
2018-05-14T07:05:09.247Z,37.93
2018-05-14T07:07:35.431Z,41.53
2018-05-14T07:10:01.675Z,39.60
2018-05-14T07:12:27.883Z,34.27
2018-05-14T07:14:55.030Z,43.63
2018-05-14T07:17:21.995Z,33.30
2018-05-14T07:19:48.179Z,38.47
2018-05-14T07:22:14.349Z,39.90
2018-05-14T07:24:40.563Z,39.03
2018-05-14T07:27:06.817Z,37.73
2018-05-14T07:29:33.127Z,37.40
2018-05-14T07:31:59.355Z,40.13
2018-05-14T07:34:25.593Z,39.03
2018-05-14T07:36:51.787Z,40.83
2018-05-14T07:39:17.983Z,39.47
2018-05-14T07:41:44.157Z,38.63
2018-05-14T07:44:11.083Z,37.07
2018-05-14T07:46:37.282Z,35.47
2018-05-14T07:49:03.511Z,37.43
2018-05-14T07:51:29.713Z,40.57
2018-05-14T07:53:55.925Z,40.10
2018-05-14T07:56:22.128Z,37.83
2018-05-14T07:58:48.340Z,33.57
2018-05-14T08:01:14.532Z,39.13
2018-05-14T08:03:40.732Z,42.07
2018-05-14T08:06:06.909Z,37.10
2018-05-14T08:08:33.112Z,39.07
2018-05-14T08:10:59.296Z,36.63
2018-05-14T08:13:26.218Z,39.77
2018-05-14T08:15:52.411Z,42.90
2018-05-14T08:18:18.609Z,39.93
2018-05-14T08:20:44.786Z,34.40
2018-05-14T08:23:11.110Z,38.43
2018-05-14T08:25:37.255Z,39.13
2018-05-14T08:28:03.433Z,33.37
2018-05-14T08:30:29.616Z,39.73
2018-05-14T08:32:55.790Z,38.67
2018-05-14T08:35:22.022Z,35.03
2018-05-14T08:37:48.255Z,37.37
2018-05-14T08:40:14.423Z,36.70
2018-05-14T08:42:40.592Z,37.10
2018-05-14T08:45:06.789Z,29.87
2018-05-14T08:47:33.716Z,36.10
2018-05-14T08:50:00.279Z,32.93
2018-05-14T08:52:27.248Z,39.50
2018-05-14T08:54:53.426Z,38.43
2018-05-14T08:57:19.607Z,38.47
2018-05-14T08:59:45.801Z,34.40
2018-05-14T09:02:12.727Z,33.07
2018-05-14T09:04:39.655Z,35.60
2018-05-14T09:07:05.847Z,42.07
2018-05-14T09:09:32.013Z,38.13
2018-05-14T09:11:58.199Z,34.87
2018-05-14T09:14:24.385Z,36.10
2018-05-14T09:16:50.559Z,34.43
2018-05-14T09:19:16.754Z,34.83
2018-05-14T09:21:42.949Z,38.13
2018-05-14T09:24:09.116Z,37.80
2018-05-14T09:26:35.303Z,34.30
2018-05-14T09:29:01.484Z,38.97
2018-05-14T09:31:27.697Z,34.53
2018-05-14T09:33:53.924Z,36.07
2018-05-14T09:36:20.865Z,36.37
2018-05-14T09:38:47.808Z,35.97
2018-05-14T09:41:14.820Z,36.80
2018-05-14T09:43:41.091Z,38.07
2018-05-14T09:46:07.279Z,31.07
2018-05-14T09:48:33.492Z,30.43
2018-05-14T09:50:59.706Z,34.30
2018-05-14T09:53:26.020Z,33.13
2018-05-14T09:55:52.193Z,28.67
2018-05-14T09:58:18.490Z,29.53
2018-05-14T10:00:44.711Z,28.70
2018-05-14T10:03:11.124Z,31.67
2018-05-14T10:05:37.335Z,29.77
2018-05-14T10:08:03.561Z,30.67
2018-05-14T10:10:30.487Z,35.70
2018-05-14T10:12:56.708Z,33.37
2018-05-14T10:15:22.889Z,34.07
2018-05-14T10:17:49.169Z,29.37
2018-05-14T10:20:15.432Z,28.77
2018-05-14T10:22:42.352Z,28.73
2018-05-14T10:25:08.539Z,30.90
2018-05-14T10:27:34.726Z,29.07
2018-05-14T10:30:01.635Z,32.20
2018-05-14T10:32:27.888Z,29.43
2018-05-14T10:34:54.063Z,25.10
2018-05-14T10:37:20.232Z,27.90
2018-05-14T10:39:46.419Z,29.97
2018-05-14T10:42:12.607Z,27.43
2018-05-14T10:44:39.545Z,29.53
2018-05-14T10:47:06.470Z,30.97
2018-05-14T10:49:32.719Z,29.70
2018-05-14T10:51:58.913Z,29.10
2018-05-14T10:54:25.103Z,27.93
2018-05-14T10:56:51.311Z,30.77
2018-05-14T10:59:18.236Z,28.73
2018-05-14T11:01:44.434Z,26.73
2018-05-14T11:04:10.627Z,29.33
2018-05-14T11:06:36.820Z,31.07
2018-05-14T11:09:03.796Z,25.73
2018-05-14T11:11:30.019Z,25.17
2018-05-14T11:13:56.939Z,26.30
2018-05-14T11:16:23.115Z,27.60
2018-05-14T11:18:49.371Z,26.10
2018-05-14T11:21:15.533Z,25.97
2018-05-14T11:23:42.469Z,26.13
2018-05-14T11:26:08.656Z,27.83
2018-05-14T11:28:34.868Z,26.67
2018-05-14T11:31:01.065Z,27.53
2018-05-14T11:33:28.010Z,23.27
2018-05-14T11:35:54.945Z,26.67
2018-05-14T11:38:21.895Z,26.87
2018-05-14T11:40:48.927Z,25.63
2018-05-14T11:43:15.155Z,28.47
2018-05-14T11:45:41.364Z,27.20
2018-05-14T11:48:09.056Z,25.23
2018-05-14T11:50:35.999Z,24.53
2018-05-14T11:53:02.320Z,28.60
2018-05-14T11:55:29.280Z,25.20
2018-05-14T11:57:56.245Z,26.43
2018-05-14T12:00:22.481Z,25.60
2018-05-14T12:02:48.745Z,25.20
2018-05-14T12:05:14.877Z,27.60
2018-05-14T12:07:41.061Z,27.67
2018-05-14T12:10:07.292Z,27.67
2018-05-14T12:12:34.191Z,27.67
2018-05-14T12:15:00.425Z,25.27
2018-05-14T12:17:27.410Z,25.33
2018-05-14T12:19:53.623Z,24.80
2018-05-14T12:22:19.863Z,26.07
2018-05-14T12:24:46.061Z,24.53
2018-05-14T12:27:12.981Z,24.40
2018-05-14T12:29:39.173Z,18.13
2018-05-14T12:32:05.471Z,16.77
2018-05-14T12:34:31.583Z,17.90
2018-05-14T12:36:57.771Z,16.43
2018-05-14T12:39:23.985Z,15.33
2018-05-14T12:41:50.193Z,18.83
2018-05-14T12:44:16.411Z,16.77
2018-05-14T12:46:43.331Z,13.90
2018-05-14T12:49:09.525Z,14.23
2018-05-14T12:51:35.735Z,13.57
2018-05-14T12:54:01.946Z,17.40
2018-05-14T12:56:28.152Z,17.37
2018-05-14T12:58:54.405Z,16.47
2018-05-14T13:01:20.614Z,15.13
2018-05-14T13:03:47.567Z,14.20
2018-05-14T13:06:14.553Z,17.53
2018-05-14T13:08:40.784Z,13.03
2018-05-14T13:11:07.013Z,12.53
2018-05-14T13:13:33.253Z,12.13
2018-05-14T13:15:59.469Z,13.73
2018-05-14T13:18:25.685Z,11.97
2018-05-14T13:20:51.918Z,11.05
2018-05-14T13:23:18.112Z,11.43
2018-05-14T13:25:45.064Z,11.00
2018-05-14T13:28:12.031Z,10.30
2018-05-14T13:30:38.249Z,10.13
2018-05-14T13:33:04.529Z,16.87
2018-05-14T13:35:30.656Z,10.05
2018-05-14T13:37:56.966Z,8.90
2018-05-14T13:40:23.107Z,8.82
2018-05-14T13:42:49.336Z,10.52
2018-05-14T13:45:15.541Z,8.48
2018-05-14T13:47:41.789Z,6.85
2018-05-14T13:50:09.486Z,7.12
2018-05-14T13:52:36.416Z,7.28
2018-05-14T13:55:10.376Z,7.35
2018-05-14T13:57:36.591Z,11.82
2018-05-14T14:00:02.824Z,7.53
2018-05-14T14:02:29.148Z,8.07
2018-05-14T14:04:55.378Z,7.85
2018-05-14T14:07:21.580Z,8.40
2018-05-14T14:09:48.551Z,8.02
2018-05-14T14:12:14.781Z,8.75
2018-05-14T14:14:40.995Z,8.75
2018-05-14T14:17:07.237Z,8.07
2018-05-14T14:19:33.448Z,7.62
2018-05-14T14:22:00.393Z,7.18
2018-05-14T14:24:26.670Z,6.32
2018-05-14T14:26:53.539Z,6.03
2018-05-14T14:29:20.487Z,6.10
2018-05-14T14:31:46.695Z,7.45
2018-05-14T14:34:13.627Z,6.70
2018-05-14T14:36:39.835Z,7.60
2018-05-14T14:39:06.060Z,6.78
2018-05-14T14:41:32.275Z,6.62
2018-05-14T14:43:58.520Z,5.60
2018-05-14T14:46:24.702Z,7.03
2018-05-14T14:48:50.965Z,6.03
2018-05-14T14:51:17.167Z,7.78
2018-05-14T14:53:44.137Z,5.97
2018-05-14T14:56:10.323Z,6.07
2018-05-14T14:58:37.295Z,5.68
2018-05-14T15:01:03.525Z,4.65
2018-05-14T15:03:30.459Z,4.68
2018-05-14T15:05:57.439Z,5.82
2018-05-14T15:08:23.647Z,5.43
2018-05-14T15:10:49.852Z,7.20
2018-05-14T15:13:16.807Z,5.40
2018-05-14T15:15:43.756Z,5.87
2018-05-14T15:18:10.687Z,4.90
2018-05-14T15:20:37.673Z,4.72
2018-05-14T15:23:03.884Z,5.28
2018-05-14T15:25:30.094Z,6.18
2018-05-14T15:27:57.035Z,5.87
2018-05-14T15:30:23.971Z,9.38
2018-05-14T15:32:50.200Z,6.80
2018-05-14T15:35:16.381Z,4.45
2018-05-14T15:37:42.617Z,4.95
2018-05-14T15:40:08.878Z,5.07
2018-05-14T15:42:35.867Z,4.55
2018-05-14T15:45:02.093Z,4.72
2018-05-14T15:47:28.303Z,4.35
2018-05-14T15:49:55.275Z,4.70
2018-05-14T15:52:21.540Z,4.45
2018-05-14T15:54:54.640Z,4.22
2018-05-14T15:57:20.837Z,4.18
2018-05-14T15:59:47.116Z,5.10
2018-05-14T16:02:14.100Z,4.30
2018-05-14T16:04:40.329Z,6.60
2018-05-14T16:07:06.528Z,6.22
2018-05-14T16:09:32.731Z,5.20
2018-05-14T16:11:58.920Z,4.03
2018-05-14T16:14:25.137Z,4.20
2018-05-14T16:16:51.339Z,4.22
2018-05-14T16:19:18.262Z,4.45
2018-05-14T16:21:44.452Z,5.20
2018-05-14T16:24:10.761Z,4.00
2018-05-14T16:26:37.026Z,3.90
2018-05-14T16:29:03.217Z,4.10
2018-05-14T16:31:29.423Z,3.97
2018-05-14T16:33:55.620Z,5.18
2018-05-14T16:36:23.865Z,4.93
2018-05-14T16:38:50.090Z,8.32
2018-05-14T16:41:16.324Z,3.75
2018-05-14T16:43:42.599Z,3.90
2018-05-14T16:46:09.572Z,3.92
2018-05-14T16:48:35.759Z,3.80
2018-05-14T16:51:01.995Z,3.50
2018-05-14T16:53:28.197Z,4.00
2018-05-14T16:55:54.409Z,4.18
2018-05-14T16:58:20.636Z,7.57
2018-05-14T17:00:46.963Z,7.37
2018-05-14T17:03:13.185Z,3.30
2018-05-14T17:05:39.386Z,4.32
2018-05-14T17:08:06.424Z,3.40
2018-05-14T17:10:32.643Z,3.47
2018-05-14T17:12:59.661Z,3.15
2018-05-14T17:15:26.668Z,4.90
2018-05-14T17:17:52.876Z,6.07
2018-05-14T17:20:19.188Z,5.65
2018-05-14T17:22:45.444Z,3.83
2018-05-14T17:25:11.695Z,2.70
2018-05-14T17:27:37.915Z,3.20
2018-05-14T17:30:04.195Z,3.47
2018-05-14T17:32:30.407Z,3.00
2018-05-14T17:34:56.624Z,3.03
2018-05-14T17:37:22.950Z,3.30
2018-05-14T17:39:49.190Z,2.87
2018-05-14T17:42:15.383Z,3.72
2018-05-14T17:44:41.569Z,3.20
2018-05-14T17:47:07.767Z,3.20
2018-05-14T17:49:33.957Z,3.62
2018-05-14T17:52:00.216Z,3.13
2018-05-14T17:54:26.474Z,3.07
2018-05-14T17:56:53.442Z,3.50
2018-05-14T17:59:19.667Z,3.40
2018-05-14T18:01:46.626Z,9.35
2018-05-14T18:04:12.883Z,3.22
2018-05-14T18:06:39.304Z,3.42
2018-05-14T18:09:05.527Z,4.87
2018-05-14T18:11:31.732Z,7.70
2018-05-14T18:13:58.080Z,5.13
2018-05-14T18:16:24.332Z,7.63
2018-05-14T18:18:50.543Z,3.80
2018-05-14T18:23:49.111Z,4.00
2018-05-14T18:26:16.110Z,4.97
2018-05-14T18:28:42.391Z,4.70
2018-05-14T18:31:15.577Z,6.15
2018-05-14T18:33:41.736Z,6.07
2018-05-14T18:36:07.960Z,5.63
2018-05-14T18:38:34.172Z,5.27
2018-05-14T18:41:00.384Z,5.97
2018-05-14T18:43:27.360Z,5.20
2018-05-14T18:45:53.585Z,4.40
2018-05-14T18:48:19.812Z,4.30
2018-05-14T18:50:46.199Z,4.90
2018-05-14T18:53:13.173Z,5.67
2018-05-14T18:55:40.126Z,7.07
2018-05-14T18:58:06.359Z,6.60
2018-05-14T19:00:33.311Z,4.83
2018-05-14T19:03:00.245Z,5.13
2018-05-14T19:05:26.501Z,6.00
2018-05-14T19:07:52.746Z,6.97
2018-05-14T19:10:25.119Z,5.70
2018-05-14T19:12:51.331Z,5.47
2018-05-14T19:15:23.486Z,5.00
2018-05-14T19:17:55.879Z,5.93
2018-05-14T19:20:22.099Z,7.63
2018-05-14T19:22:54.434Z,7.87
2018-05-14T19:25:21.400Z,5.40
2018-05-14T19:27:53.917Z,6.53
2018-05-14T19:30:20.124Z,6.30
2018-05-14T19:32:46.333Z,8.20
2018-05-14T19:35:18.732Z,6.00
2018-05-14T19:37:44.928Z,5.93
2018-05-14T19:40:17.459Z,6.20
2018-05-14T19:42:43.687Z,5.67
2018-05-14T19:45:09.895Z,7.23
2018-05-14T19:47:36.134Z,7.00
2018-05-14T19:50:02.351Z,6.07
2018-05-14T19:52:28.571Z,6.10
2018-05-14T19:54:54.819Z,9.97
2018-05-14T19:57:21.039Z,7.03
2018-05-14T19:59:47.272Z,6.10
2018-05-14T20:02:13.492Z,10.13
2018-05-14T20:04:39.706Z,10.83
2018-05-14T20:07:05.933Z,10.67
2018-05-14T20:09:32.151Z,7.60
2018-05-14T20:11:58.408Z,7.10
2018-05-14T20:14:24.615Z,7.83
2018-05-14T20:16:50.799Z,5.90
2018-05-14T20:19:17.776Z,6.70
2018-05-14T20:21:43.976Z,7.63
2018-05-14T20:24:10.894Z,6.80
2018-05-14T20:26:37.165Z,8.30
2018-05-14T20:29:03.482Z,7.47
2018-05-14T20:31:29.753Z,8.20
2018-05-14T20:33:56.664Z,6.13
2018-05-14T20:36:22.827Z,6.00
2018-05-14T20:38:49.026Z,6.67
2018-05-14T20:41:15.981Z,6.60
2018-05-14T20:43:42.162Z,7.03
2018-05-14T20:46:08.362Z,6.60
2018-05-14T20:48:34.596Z,7.13
2018-05-14T20:51:00.779Z,11.17
2018-05-14T20:53:26.959Z,7.60
2018-05-14T20:55:53.155Z,6.57
2018-05-14T20:58:19.372Z,6.70
2018-05-14T21:00:45.577Z,7.13
2018-05-14T21:03:11.814Z,7.13
2018-05-14T21:05:38.008Z,7.10
2018-05-14T21:08:05.680Z,8.63
2018-05-14T21:10:32.639Z,10.63
2018-05-14T21:12:59.578Z,7.27
2018-05-14T21:15:26.496Z,7.40
2018-05-14T21:17:52.693Z,6.57
2018-05-14T21:20:18.873Z,7.60
2018-05-14T21:22:45.807Z,6.47
2018-05-14T21:25:12.059Z,9.23
2018-05-14T21:27:38.242Z,7.03
2018-05-14T21:30:04.432Z,7.00
2018-05-14T21:32:30.615Z,7.10
2018-05-14T21:34:56.793Z,6.83
2018-05-14T21:37:22.996Z,7.37
2018-05-14T21:39:49.915Z,7.13
2018-05-14T21:42:16.839Z,7.70
2018-05-14T21:44:43.027Z,7.47
2018-05-14T21:47:09.215Z,7.23
2018-05-14T21:49:35.411Z,7.53
2018-05-14T21:52:01.611Z,7.30
2018-05-14T21:54:27.844Z,8.33
2018-05-14T21:56:54.031Z,7.63
2018-05-14T21:59:20.231Z,10.63
2018-05-14T22:01:46.407Z,7.37
2018-05-14T22:04:12.599Z,7.70
2018-05-14T22:06:38.800Z,8.50
2018-05-14T22:09:04.955Z,7.90
2018-05-14T22:11:31.881Z,7.93
2018-05-14T22:13:58.067Z,8.13
2018-05-14T22:16:24.274Z,8.57
2018-05-14T22:18:50.438Z,7.67
2018-05-14T22:21:16.649Z,9.37
2018-05-14T22:23:42.893Z,9.13
2018-05-14T22:26:09.228Z,7.53
2018-05-14T22:28:35.427Z,7.40
2018-05-14T22:31:01.616Z,7.77
2018-05-14T22:33:34.937Z,8.90
2018-05-14T22:36:01.121Z,8.83
2018-05-14T22:38:27.297Z,7.47
2018-05-14T22:40:53.495Z,7.47
2018-05-14T22:43:19.684Z,7.70
2018-05-14T22:45:45.891Z,7.47
2018-05-14T22:48:12.078Z,7.23
2018-05-14T22:50:39.000Z,7.03
2018-05-14T22:53:05.197Z,8.83
2018-05-14T22:55:32.101Z,9.07
2018-05-14T22:57:59.088Z,10.47
2018-05-14T23:00:26.268Z,8.27
2018-05-14T23:02:53.181Z,7.63
2018-05-14T23:05:19.376Z,7.10
2018-05-14T23:07:46.305Z,7.13
2018-05-14T23:10:12.501Z,8.33
2018-05-14T23:12:38.687Z,6.53
2018-05-14T23:15:05.622Z,6.67
2018-05-14T23:17:31.844Z,6.20
2018-05-14T23:19:58.788Z,7.77
2018-05-14T23:22:38.063Z,7.07
2018-05-14T23:25:04.968Z,6.80
2018-05-14T23:27:31.889Z,11.17
2018-05-14T23:29:58.101Z,10.50
2018-05-14T23:32:24.287Z,7.10
2018-05-14T23:34:51.206Z,7.40
2018-05-14T23:37:17.403Z,8.33
2018-05-14T23:39:43.583Z,7.50
2018-05-14T23:42:10.507Z,7.67
2018-05-14T23:44:36.711Z,7.90
2018-05-14T23:47:02.905Z,7.73
2018-05-14T23:49:29.088Z,8.13
2018-05-14T23:51:56.041Z,12.23
2018-05-14T23:54:22.963Z,7.50
2018-05-14T23:56:49.145Z,8.17
2018-05-14T23:59:15.345Z,7.47
